Time;durP1;ratioP1;P1;durP2;ratioP2;P2;SDS_P1;SDS_P2;PMS_P1;PMS_P2;Temp;Humidity;BMP_temperature;BMP_pressure;BME280_temperature;BME280_humidity;BME280_pressure;Samples;Min_cycle;Max_cycle;Signal;HPM_P1;HPM_P2
2023/10/26 00:01:33;;;;;;;11.63;6.72;;;10.00;99.90;;;;;;4857585;29;20033;-81
2023/10/26 00:03:59;;;;;;;11.85;6.95;;;10.00;99.90;;;;;;4859738;29;20045;-81
2023/10/26 00:06:25;;;;;;;12.10;6.55;;;10.00;99.90;;;;;;4875734;29;20048;-81
2023/10/26 00:08:50;;;;;;;12.75;7.13;;;10.00;99.90;;;;;;4858374;29;20041;-81
2023/10/26 00:11:16;;;;;;;12.05;7.47;;;10.10;99.90;;;;;;4843518;29;20048;-81
2023/10/26 00:13:42;;;;;;;13.38;7.85;;;10.10;99.90;;;;;;4877027;29;20037;-81
2023/10/26 00:16:08;;;;;;;13.38;7.90;;;10.10;99.90;;;;;;4858559;29;20043;-81
2023/10/26 00:18:34;;;;;;;13.00;7.57;;;10.00;99.90;;;;;;4891077;29;20085;-81
2023/10/26 00:21:00;;;;;;;11.82;7.88;;;10.10;99.90;;;;;;4859862;29;20044;-81
2023/10/26 00:23:27;;;;;;;14.80;8.38;;;10.10;99.90;;;;;;4858569;29;20067;-81
2023/10/26 00:25:53;;;;;;;12.15;7.97;;;10.10;99.90;;;;;;4858510;29;20539;-81
2023/10/26 00:28:19;;;;;;;12.52;8.27;;;10.10;99.90;;;;;;4891031;29;20235;-81
2023/10/26 00:30:45;;;;;;;13.25;8.90;;;10.10;99.90;;;;;;4855717;29;20322;-81
2023/10/26 00:33:11;;;;;;;15.80;9.02;;;10.10;99.90;;;;;;4858576;29;20079;-81
2023/10/26 00:35:37;;;;;;;13.38;8.82;;;10.10;99.90;;;;;;4890178;29;20068;-81
2023/10/26 00:38:02;;;;;;;15.93;9.10;;;10.10;99.90;;;;;;4874168;29;20040;-81
2023/10/26 00:40:28;;;;;;;14.93;9.93;;;10.10;99.90;;;;;;4843230;29;20115;-81
2023/10/26 00:43:01;;;;;;;14.35;9.98;;;10.10;99.90;;;;;;4842303;29;20061;-81
2023/10/26 00:45:35;;;;;;;15.55;10.98;;;10.10;99.90;;;;;;4875454;29;20032;-81
2023/10/26 00:48:01;;;;;;;14.52;9.68;;;10.10;99.90;;;;;;4873632;29;20096;-81
2023/10/26 00:50:28;;;;;;;16.17;10.27;;;10.10;99.90;;;;;;4875003;29;20036;-81
2023/10/26 00:52:54;;;;;;;15.00;10.38;;;10.10;99.90;;;;;;4860076;29;20115;-81
2023/10/26 00:55:21;;;;;;;17.15;11.93;;;10.10;99.90;;;;;;4858966;29;20037;-81
2023/10/26 00:57:47;;;;;;;17.50;11.77;;;10.10;99.90;;;;;;4873936;29;20044;-81
2023/10/26 01:00:13;;;;;;;17.42;11.95;;;10.10;99.90;;;;;;4860631;29;20047;-81
2023/10/26 01:02:39;;;;;;;16.65;11.55;;;10.10;99.90;;;;;;4858946;29;20155;-81
2023/10/26 01:05:05;;;;;;;17.95;12.80;;;10.10;99.90;;;;;;4873708;29;20156;-81
2023/10/26 01:07:30;;;;;;;18.75;12.85;;;10.10;99.90;;;;;;4875497;29;20049;-81
2023/10/26 01:09:57;;;;;;;17.92;12.88;;;10.10;99.90;;;;;;4858601;29;20037;-81
2023/10/26 01:12:23;;;;;;;18.10;12.68;;;10.10;99.90;;;;;;4857647;29;20059;-81
2023/10/26 01:14:49;;;;;;;20.98;12.70;;;10.10;99.90;;;;;;4854053;29;20048;-81
2023/10/26 01:17:15;;;;;;;18.10;12.88;;;10.10;99.90;;;;;;4859082;29;21844;-80
2023/10/26 01:19:43;;;;;;;18.77;13.93;;;10.10;99.90;;;;;;4874579;29;20139;-81
2023/10/26 01:22:09;;;;;;;17.98;12.82;;;10.10;99.90;;;;;;4872986;29;20043;-81
2023/10/26 01:24:36;;;;;;;18.88;13.32;;;10.10;99.90;;;;;;4871028;29;20075;-81
2023/10/26 01:27:02;;;;;;;19.70;13.15;;;10.10;99.90;;;;;;4875438;29;20049;-81
2023/10/26 01:29:28;;;;;;;19.25;13.02;;;10.10;99.90;;;;;;4888393;29;20047;-81
2023/10/26 01:31:53;;;;;;;20.20;13.32;;;10.10;99.90;;;;;;4840725;29;20052;-80
2023/10/26 01:34:19;;;;;;;19.00;13.52;;;10.10;99.90;;;;;;4872667;29;20076;-81
2023/10/26 01:36:45;;;;;;;19.00;13.75;;;10.10;99.90;;;;;;4841953;29;20044;-81
2023/10/26 01:39:13;;;;;;;18.15;12.63;;;10.10;99.90;;;;;;4855494;29;20123;-81
2023/10/26 01:41:39;;;;;;;19.48;13.77;;;10.10;99.90;;;;;;4858314;29;20190;-81
2023/10/26 01:44:05;;;;;;;19.52;13.05;;;10.10;99.90;;;;;;4842350;29;20041;-81
2023/10/26 01:46:30;;;;;;;19.50;13.18;;;10.10;99.90;;;;;;4872491;29;20084;-82
2023/10/26 01:48:56;;;;;;;19.83;12.80;;;10.10;99.90;;;;;;4856653;29;20108;-81
2023/10/26 01:51:22;;;;;;;17.63;12.63;;;10.10;99.90;;;;;;4857558;29;20103;-81
2023/10/26 01:53:47;;;;;;;18.30;13.27;;;10.10;99.90;;;;;;4846019;29;20472;-81
2023/10/26 01:56:13;;;;;;;19.30;12.95;;;10.10;99.90;;;;;;4858474;29;20491;-81
2023/10/26 01:58:39;;;;;;;18.13;13.40;;;10.10;99.90;;;;;;4874472;29;20523;-81
2023/10/26 02:01:05;;;;;;;19.85;12.93;;;10.10;99.90;;;;;;4859800;29;20132;-81
2023/10/26 02:03:31;;;;;;;18.00;12.98;;;10.10;99.90;;;;;;4858506;29;20048;-81
2023/10/26 02:05:57;;;;;;;19.08;12.93;;;10.10;99.90;;;;;;4882530;29;20172;-81
2023/10/26 02:08:22;;;;;;;17.67;12.90;;;10.10;99.90;;;;;;4858919;29;20128;-81
2023/10/26 02:10:48;;;;;;;19.02;13.07;;;10.10;99.90;;;;;;4889507;29;20048;-81
2023/10/26 02:13:14;;;;;;;16.50;12.18;;;10.10;99.90;;;;;;4872836;29;20052;-81
2023/10/26 02:15:40;;;;;;;15.55;10.55;;;10.10;99.90;;;;;;4858967;29;20044;-81
2023/10/26 02:18:06;;;;;;;18.05;12.07;;;10.10;99.90;;;;;;4843327;29;20047;-81
2023/10/26 02:20:31;;;;;;;17.73;11.40;;;10.10;99.90;;;;;;4872394;29;20041;-81
2023/10/26 02:22:57;;;;;;;17.40;11.48;;;10.10;99.90;;;;;;4858458;29;20525;-81
2023/10/26 02:25:23;;;;;;;16.40;11.55;;;10.10;99.90;;;;;;4859072;29;20044;-81
2023/10/26 02:27:48;;;;;;;16.38;11.30;;;10.00;99.90;;;;;;4856199;29;20542;-81
2023/10/26 02:30:14;;;;;;;17.63;11.65;;;10.10;99.90;;;;;;4858006;29;20044;-81
2023/10/26 02:32:40;;;;;;;17.95;12.38;;;10.10;99.90;;;;;;4874094;29;20051;-81
2023/10/26 02:35:07;;;;;;;16.10;11.00;;;10.00;99.90;;;;;;4874837;29;20131;-81
2023/10/26 02:37:38;;;;;;;18.42;12.23;;;10.00;99.90;;;;;;4842923;29;20040;-81
2023/10/26 02:40:10;;;;;;;16.75;11.65;;;10.00;99.90;;;;;;4874109;29;20052;-81
2023/10/26 02:42:38;;;;;;;17.13;11.65;;;10.00;99.90;;;;;;4862168;29;20040;-81
2023/10/26 02:45:06;;;;;;;18.15;11.68;;;10.10;99.90;;;;;;4888701;29;20532;-80
2023/10/26 02:47:32;;;;;;;17.48;11.57;;;10.00;99.90;;;;;;4843712;29;20040;-81
2023/10/26 02:49:57;;;;;;;17.85;12.52;;;10.00;99.90;;;;;;4894242;29;20095;-80
2023/10/26 02:52:23;;;;;;;16.95;11.52;;;10.00;99.90;;;;;;4878161;29;20036;-80
2023/10/26 02:54:49;;;;;;;17.08;12.15;;;10.00;99.90;;;;;;4877579;29;20072;-80
2023/10/26 02:57:15;;;;;;;17.33;11.82;;;10.00;99.90;;;;;;4876465;29;20037;-81
2023/10/26 02:59:40;;;;;;;19.17;12.57;;;10.00;99.90;;;;;;4859550;29;20176;-81
2023/10/26 03:02:07;;;;;;;18.10;11.73;;;10.00;99.90;;;;;;4876684;29;20073;-80
2023/10/26 03:04:34;;;;;;;16.88;11.68;;;10.00;99.90;;;;;;4877183;29;20139;-81
2023/10/26 03:07:00;;;;;;;18.65;12.82;;;10.00;99.90;;;;;;4891765;29;20044;-80
2023/10/26 03:09:26;;;;;;;16.95;11.80;;;10.00;99.90;;;;;;4877509;29;20247;-81
2023/10/26 03:11:52;;;;;;;18.15;12.38;;;10.00;99.90;;;;;;4875398;29;20076;-81
2023/10/26 03:14:18;;;;;;;18.80;12.23;;;10.00;99.90;;;;;;4844680;29;22038;-81
2023/10/26 03:16:44;;;;;;;21.17;12.40;;;10.00;99.90;;;;;;4876174;29;20068;-81
2023/10/26 03:19:10;;;;;;;17.58;11.60;;;10.00;99.90;;;;;;4858342;29;20084;-81
2023/10/26 03:21:36;;;;;;;17.65;12.27;;;10.00;99.90;;;;;;4868430;29;20037;-81
2023/10/26 03:24:02;;;;;;;16.98;11.70;;;10.00;99.90;;;;;;4873117;29;20545;-81
2023/10/26 03:26:28;;;;;;;16.92;11.60;;;10.00;99.90;;;;;;4886785;29;20415;-81
2023/10/26 03:28:54;;;;;;;18.88;12.27;;;10.00;99.90;;;;;;4857956;29;20048;-81
2023/10/26 03:31:19;;;;;;;17.30;11.85;;;10.00;99.90;;;;;;4875160;29;20495;-81
2023/10/26 03:33:45;;;;;;;18.17;12.00;;;10.00;99.90;;;;;;4875200;29;20040;-80
2023/10/26 03:36:18;;;;;;;17.60;12.05;;;10.00;99.90;;;;;;4872923;29;20041;-81
2023/10/26 03:38:44;;;;;;;;;;;10.00;99.90;;;;;;4892762;29;20048;-80
2023/10/26 03:41:10;;;;;;;15.13;10.52;;;9.90;99.90;;;;;;4863026;29;19970;-80
2023/10/26 03:43:36;;;;;;;17.15;11.93;;;10.00;99.90;;;;;;4893465;29;20068;-80
2023/10/26 03:46:02;;;;;;;17.15;11.32;;;10.00;99.90;;;;;;4858535;29;20052;-81
2023/10/26 03:48:28;;;;;;;17.30;12.05;;;10.00;99.90;;;;;;4845799;29;20055;-81
2023/10/26 03:50:54;;;;;;;16.95;12.18;;;10.00;99.90;;;;;;4876561;29;20048;-81
2023/10/26 03:53:20;;;;;;;19.60;12.70;;;9.90;99.90;;;;;;4860058;29;20402;-81
2023/10/26 03:55:46;;;;;;;16.20;11.13;;;9.90;99.90;;;;;;4861366;29;20094;-81
2023/10/26 03:58:14;;;;;;;19.90;12.13;;;9.90;99.90;;;;;;4845933;29;20803;-81
2023/10/26 04:00:39;;;;;;;18.15;11.63;;;9.90;99.90;;;;;;4843789;29;20078;-81
2023/10/26 04:03:05;;;;;;;16.27;11.55;;;9.90;99.90;;;;;;4876373;29;20410;-81
2023/10/26 04:05:31;;;;;;;17.42;11.30;;;9.90;99.90;;;;;;4860306;29;20033;-81
2023/10/26 04:08:00;;;;;;;18.23;11.80;;;9.90;99.90;;;;;;4829942;29;20052;-81
2023/10/26 04:10:26;;;;;;;19.02;11.07;;;9.90;99.90;;;;;;4876269;29;20136;-81
2023/10/26 04:12:52;;;;;;;17.48;12.10;;;9.90;99.90;;;;;;4877657;29;20492;-81
2023/10/26 04:15:18;;;;;;;16.45;11.65;;;9.90;99.90;;;;;;4861310;29;20475;-81
2023/10/26 04:17:43;;;;;;;18.83;12.52;;;9.90;99.90;;;;;;4886919;29;20054;-81
2023/10/26 04:20:10;;;;;;;17.52;11.98;;;9.90;99.90;;;;;;4877571;29;20418;-81
2023/10/26 04:22:36;;;;;;;17.83;12.35;;;9.90;99.90;;;;;;4874271;29;20104;-81
2023/10/26 04:25:02;;;;;;;18.77;11.88;;;9.90;99.90;;;;;;4874944;29;20048;-81
2023/10/26 04:27:28;;;;;;;17.27;12.00;;;9.90;99.90;;;;;;4858786;29;20048;-81
2023/10/26 04:29:53;;;;;;;17.80;12.68;;;9.90;99.90;;;;;;4851168;29;20048;-81
2023/10/26 04:32:19;;;;;;;17.88;11.00;;;9.90;99.90;;;;;;4857841;29;20209;-81
2023/10/26 04:34:45;;;;;;;18.27;12.32;;;9.90;99.90;;;;;;4888742;29;20055;-81
2023/10/26 04:37:11;;;;;;;17.98;12.18;;;9.90;99.90;;;;;;4874955;29;20059;-81
2023/10/26 04:39:37;;;;;;;17.65;12.50;;;9.90;99.90;;;;;;4873595;29;20032;-81
2023/10/26 04:42:04;;;;;;;16.48;11.77;;;9.90;99.90;;;;;;4857268;29;20119;-81
2023/10/26 04:44:30;;;;;;;17.83;11.48;;;9.80;99.90;;;;;;4888884;29;20051;-81
2023/10/26 04:46:55;;;;;;;16.55;11.60;;;9.80;99.90;;;;;;4884481;29;20044;-81
2023/10/26 04:49:21;;;;;;;16.38;11.65;;;9.90;99.90;;;;;;4873953;29;20032;-81
2023/10/26 04:51:47;;;;;;;15.73;11.20;;;9.80;99.90;;;;;;4857040;29;20543;-81
2023/10/26 04:54:13;;;;;;;19.05;12.02;;;9.80;99.90;;;;;;4871738;29;20044;-80
2023/10/26 04:56:38;;;;;;;16.75;11.35;;;9.80;99.90;;;;;;4885047;29;20044;-83
2023/10/26 04:59:04;;;;;;;18.33;12.13;;;9.80;99.90;;;;;;4886944;29;20090;-81
2023/10/26 05:01:30;;;;;;;18.52;12.50;;;9.80;99.90;;;;;;4878742;29;20091;-81
2023/10/26 05:03:55;;;;;;;16.90;11.60;;;9.80;99.90;;;;;;4850551;29;20044;-81
2023/10/26 05:06:21;;;;;;;17.13;11.40;;;9.80;99.90;;;;;;4871222;29;20263;-82
2023/10/26 05:08:47;;;;;;;16.85;11.13;;;9.80;99.90;;;;;;4840785;29;20032;-82
2023/10/26 05:11:13;;;;;;;19.30;12.52;;;9.80;99.90;;;;;;4857075;29;20262;-82
2023/10/26 05:13:38;;;;;;;17.35;12.18;;;9.80;99.90;;;;;;4897101;29;20045;-82
2023/10/26 05:16:04;;;;;;;17.85;12.25;;;9.80;99.90;;;;;;4864490;29;20072;-82
2023/10/26 05:18:30;;;;;;;17.63;11.82;;;9.80;99.90;;;;;;4872924;29;20127;-82
2023/10/26 05:20:56;;;;;;;18.08;12.10;;;9.80;99.90;;;;;;4852742;29;20040;-82
2023/10/26 05:23:22;;;;;;;16.77;11.70;;;9.80;99.90;;;;;;4846255;29;20032;-82
2023/10/26 05:25:48;;;;;;;17.70;11.73;;;9.80;99.90;;;;;;4886730;29;20060;-82
2023/10/26 05:28:14;;;;;;;19.65;11.88;;;9.90;99.90;;;;;;4850076;29;20056;-82
2023/10/26 05:30:40;;;;;;;17.45;12.65;;;9.80;99.90;;;;;;4864021;29;20237;-83
2023/10/26 05:33:07;;;;;;;19.02;12.35;;;9.90;99.90;;;;;;4879308;29;20516;-83
2023/10/26 05:35:33;;;;;;;18.75;12.18;;;9.90;99.90;;;;;;4876887;29;20048;-82
2023/10/26 05:37:58;;;;;;;17.63;12.15;;;9.90;99.90;;;;;;4860943;29;20124;-83
2023/10/26 05:40:24;;;;;;;18.58;13.40;;;9.90;99.90;;;;;;4875036;29;20072;-83
2023/10/26 05:42:50;;;;;;;23.38;12.40;;;9.80;99.90;;;;;;4875826;29;20044;-83
2023/10/26 05:45:16;;;;;;;18.77;12.50;;;9.80;99.90;;;;;;4876879;29;20048;-82
2023/10/26 05:47:41;;;;;;;18.42;12.50;;;9.80;99.90;;;;;;4876888;29;20041;-83
2023/10/26 05:50:08;;;;;;;19.45;12.93;;;9.80;99.90;;;;;;4877874;29;20104;-83
2023/10/26 05:52:33;;;;;;;17.48;12.40;;;9.80;99.90;;;;;;4877614;29;20491;-83
2023/10/26 05:54:59;;;;;;;20.35;13.07;;;9.80;99.90;;;;;;4878672;29;20040;-83
2023/10/26 05:57:28;;;;;;;16.67;12.02;;;9.80;99.90;;;;;;4861867;29;20305;-83
2023/10/26 05:59:53;;;;;;;19.15;12.93;;;9.70;99.90;;;;;;4874754;29;20423;-82
2023/10/26 06:02:19;;;;;;;18.75;12.70;;;9.70;99.90;;;;;;4874208;29;20049;-83
2023/10/26 06:04:45;;;;;;;19.38;13.05;;;9.70;99.90;;;;;;4872374;29;20040;-81
2023/10/26 06:07:11;;;;;;;20.52;13.30;;;9.60;99.90;;;;;;4869591;29;20045;-81
2023/10/26 06:09:36;;;;;;;17.92;12.35;;;9.60;99.90;;;;;;4860467;29;20040;-81
2023/10/26 06:12:02;;;;;;;20.48;12.85;;;9.60;99.90;;;;;;4870526;29;20895;-81
2023/10/26 06:14:28;;;;;;;19.83;12.88;;;9.60;99.90;;;;;;4875245;29;20052;-81
2023/10/26 06:16:53;;;;;;;18.30;12.23;;;9.60;99.90;;;;;;4874235;29;20056;-81
2023/10/26 06:19:19;;;;;;;18.25;12.85;;;9.60;99.90;;;;;;4861320;29;20068;-81
2023/10/26 06:21:45;;;;;;;18.20;11.95;;;9.60;99.90;;;;;;4867212;29;20108;-81
2023/10/26 06:24:11;;;;;;;19.73;12.25;;;9.60;99.90;;;;;;4876220;29;20407;-81
2023/10/26 06:26:36;;;;;;;18.48;12.68;;;9.60;99.90;;;;;;4877721;29;20056;-81
2023/10/26 06:29:03;;;;;;;17.92;12.70;;;9.60;99.90;;;;;;4893077;29;20484;-81
2023/10/26 06:31:29;;;;;;;17.13;11.95;;;9.50;99.90;;;;;;4874629;29;20053;-81
2023/10/26 06:33:55;;;;;;;19.30;12.48;;;9.50;99.90;;;;;;4890748;29;20073;-81
2023/10/26 06:36:21;;;;;;;17.83;12.32;;;9.50;99.90;;;;;;4889386;29;20037;-81
2023/10/26 06:38:46;;;;;;;18.58;11.98;;;9.40;99.90;;;;;;4871942;29;20044;-81
2023/10/26 06:41:12;;;;;;;18.45;12.23;;;9.40;99.90;;;;;;4858812;29;20337;-81
2023/10/26 06:43:38;;;;;;;18.13;12.52;;;9.40;99.90;;;;;;4873025;29;20036;-81
2023/10/26 06:46:04;;;;;;;18.15;12.10;;;9.40;99.90;;;;;;4886566;29;20141;-81
2023/10/26 06:48:30;;;;;;;17.77;11.95;;;9.30;99.90;;;;;;4871060;29;20076;-81
2023/10/26 06:51:04;;;;;;;17.90;11.70;;;9.40;99.90;;;;;;4843376;29;20533;-81
2023/10/26 06:53:29;;;;;;;17.98;12.13;;;9.30;99.90;;;;;;4874189;29;20052;-81
2023/10/26 06:55:56;;;;;;;16.45;11.45;;;9.30;99.90;;;;;;4868851;29;20058;-81
2023/10/26 06:58:22;;;;;;;18.58;12.30;;;9.30;99.90;;;;;;4859046;29;20041;-81
2023/10/26 07:00:47;;;;;;;17.20;11.27;;;9.30;99.90;;;;;;4853071;29;20041;-81
2023/10/26 07:03:13;;;;;;;16.52;11.73;;;9.30;99.90;;;;;;4857863;29;20407;-81
2023/10/26 07:05:40;;;;;;;19.55;11.45;;;9.20;99.90;;;;;;4852696;29;20108;-81
2023/10/26 07:08:06;;;;;;;17.25;11.77;;;9.30;99.90;;;;;;4868740;29;20101;-81
2023/10/26 07:10:32;;;;;;;16.88;11.35;;;9.20;99.90;;;;;;4841072;29;20072;-81
2023/10/26 07:12:57;;;;;;;17.05;12.10;;;9.30;99.90;;;;;;4841674;29;20116;-81
2023/10/26 07:15:23;;;;;;;16.55;11.13;;;9.30;99.90;;;;;;4855699;29;20422;-81
2023/10/26 07:17:49;;;;;;;18.05;12.02;;;9.30;99.90;;;;;;4839493;29;20040;-81
2023/10/26 07:20:15;;;;;;;17.25;11.65;;;9.30;99.90;;;;;;4871604;29;20464;-81
2023/10/26 07:22:42;;;;;;;17.23;11.23;;;9.30;99.90;;;;;;4887360;29;20044;-81
2023/10/26 07:25:08;;;;;;;17.67;11.57;;;9.40;99.90;;;;;;4882387;29;20068;-81
2023/10/26 07:27:34;;;;;;;19.00;11.85;;;9.40;99.90;;;;;;4856350;29;20128;-81
2023/10/26 07:30:00;;;;;;;18.75;11.50;;;9.40;99.90;;;;;;4871727;29;20128;-81
2023/10/26 07:32:26;;;;;;;17.85;11.38;;;9.40;99.90;;;;;;4863979;29;20041;-83
2023/10/26 07:34:52;;;;;;;18.67;11.65;;;9.40;99.90;;;;;;4858282;29;20040;-81
2023/10/26 07:37:18;;;;;;;16.58;10.43;;;9.40;99.90;;;;;;4889195;29;20100;-81
2023/10/26 07:39:44;;;;;;;19.80;11.57;;;9.40;99.90;;;;;;4874209;29;20040;-81
2023/10/26 07:42:10;;;;;;;17.27;10.90;;;9.40;99.90;;;;;;4858576;29;20044;-81
2023/10/26 07:44:37;;;;;;;17.05;11.45;;;9.50;99.90;;;;;;4861035;29;20051;-81
2023/10/26 07:47:04;;;;;;;19.02;11.68;;;9.50;99.90;;;;;;4876523;29;20036;-83
2023/10/26 07:49:30;;;;;;;15.98;11.05;;;9.50;99.90;;;;;;4860435;29;20460;-82
2023/10/26 07:51:56;;;;;;;17.88;11.20;;;9.60;99.90;;;;;;4859847;29;21467;-82
2023/10/26 07:54:22;;;;;;;17.67;11.43;;;9.60;99.90;;;;;;4890799;29;20754;-82
2023/10/26 07:56:48;;;;;;;18.42;11.50;;;9.60;99.90;;;;;;4874502;29;20049;-82
2023/10/26 07:59:13;;;;;;;18.17;11.10;;;9.60;99.90;;;;;;4852377;29;20091;-81
2023/10/26 08:01:39;;;;;;;17.30;11.63;;;9.60;99.90;;;;;;4873549;29;20477;-82
2023/10/26 08:04:05;;;;;;;18.65;10.73;;;9.60;99.90;;;;;;4871808;29;20517;-82
2023/10/26 08:06:31;;;;;;;19.73;11.90;;;9.60;99.90;;;;;;4843655;29;20045;-82
2023/10/26 08:08:58;;;;;;;17.90;10.52;;;9.60;99.90;;;;;;4866400;29;20043;-82
2023/10/26 08:11:24;;;;;;;15.88;10.82;;;9.60;99.90;;;;;;4845690;29;20068;-82
2023/10/26 08:13:50;;;;;;;17.02;10.40;;;9.50;99.90;;;;;;4888801;29;20074;-81
2023/10/26 08:16:16;;;;;;;16.75;10.93;;;9.50;99.90;;;;;;4855970;29;20085;-81
2023/10/26 08:18:42;;;;;;;15.77;10.18;;;9.50;99.90;;;;;;4857776;29;20183;-81
2023/10/26 08:21:09;;;;;;;16.27;11.10;;;9.50;99.90;;;;;;4859616;29;20043;-81
2023/10/26 08:23:35;;;;;;;16.65;10.93;;;9.50;99.90;;;;;;4874885;29;20044;-81
2023/10/26 08:26:08;;;;;;;16.65;11.13;;;9.50;99.90;;;;;;4891828;29;20165;-81
2023/10/26 08:28:34;;;;;;;;;;;9.60;99.90;;;;;;4874357;29;20055;-81
2023/10/26 08:31:01;;;;;;;17.02;9.90;;;9.60;99.90;;;;;;4857140;29;20378;-81
2023/10/26 08:33:30;;;;;;;15.63;9.95;;;9.60;99.90;;;;;;4875708;29;20499;-81
2023/10/26 08:35:57;;;;;;;15.18;9.50;;;9.60;99.90;;;;;;4890872;29;20063;-81
2023/10/26 08:38:23;;;;;;;16.25;10.00;;;9.60;99.90;;;;;;4858224;29;20041;-81
2023/10/26 08:40:50;;;;;;;18.25;11.15;;;9.70;99.90;;;;;;4858260;29;20117;-81
2023/10/26 08:43:17;;;;;;;16.75;10.10;;;9.60;99.90;;;;;;4873999;29;20047;-81
2023/10/26 08:45:44;;;;;;;14.98;9.68;;;9.70;99.90;;;;;;4856385;29;20041;-81
2023/10/26 08:48:16;;;;;;;16.77;10.60;;;9.60;99.90;;;;;;4873959;29;20135;-81
2023/10/26 08:50:42;;;;;;;15.80;10.15;;;9.60;99.90;;;;;;4891085;29;20060;-81
2023/10/26 08:53:08;;;;;;;17.15;10.48;;;9.70;99.90;;;;;;4850719;29;20040;-81
2023/10/26 08:55:38;;;;;;;16.83;10.20;;;9.70;99.90;;;;;;4856832;29;20047;-81
2023/10/26 08:58:04;;;;;;;19.42;11.52;;;9.80;99.90;;;;;;4873058;29;20056;-81
2023/10/26 09:00:30;;;;;;;16.10;10.35;;;9.70;99.90;;;;;;4874226;29;20139;-81
2023/10/26 09:02:56;;;;;;;17.30;10.20;;;9.80;99.90;;;;;;4842662;29;20041;-82
2023/10/26 09:05:23;;;;;;;16.80;10.13;;;9.90;99.90;;;;;;4889307;29;20040;-81
2023/10/26 09:07:51;;;;;;;17.20;11.05;;;9.90;99.90;;;;;;4872918;29;20056;-82
2023/10/26 09:10:31;;;;;;;17.02;10.82;;;9.90;99.90;;;;;;4859055;29;20511;-81
2023/10/26 09:13:06;;;;;;;16.40;10.52;;;9.90;99.90;;;;;;4874685;29;20416;-81
2023/10/26 09:15:47;;;;;;;17.35;11.35;;;9.90;99.90;;;;;;4857744;29;20033;-81
2023/10/26 09:18:15;;;;;;;18.05;11.35;;;10.00;99.90;;;;;;4874418;29;20048;-82
2023/10/26 09:20:42;;;;;;;21.63;13.23;;;10.00;99.90;;;;;;4872506;29;20439;-81
2023/10/26 09:23:28;;;;;;;20.35;13.45;;;10.00;99.90;;;;;;4872509;29;20048;-83
2023/10/26 09:26:09;;;;;;;23.80;14.63;;;10.10;99.90;;;;;;4863249;29;20117;-81
2023/10/26 09:28:54;;;;;;;24.52;15.82;;;10.10;99.90;;;;;;4868002;29;20048;-82
2023/10/26 09:31:23;;;;;;;22.88;15.27;;;10.10;99.90;;;;;;4844565;29;20045;-81
2023/10/26 09:33:50;;;;;;;24.08;16.13;;;10.10;99.90;;;;;;4866482;29;20109;-81
2023/10/26 09:36:18;;;;;;;24.20;15.30;;;10.20;99.90;;;;;;4855222;29;20065;-81
2023/10/26 09:38:44;;;;;;;23.20;14.98;;;10.20;99.90;;;;;;4856090;29;20081;-81
2023/10/26 09:41:18;;;;;;;24.40;15.60;;;10.20;99.90;;;;;;4855893;29;20128;-81
2023/10/26 09:43:44;;;;;;;22.45;15.63;;;10.30;99.90;;;;;;4858534;29;20048;-81
2023/10/26 09:46:10;;;;;;;24.38;16.13;;;10.30;99.90;;;;;;4854187;29;20037;-81
2023/10/26 09:48:36;;;;;;;22.60;15.45;;;10.40;99.90;;;;;;4840531;29;20045;-81
2023/10/26 09:51:04;;;;;;;22.35;15.23;;;10.40;99.90;;;;;;4857478;29;20040;-81
2023/10/26 09:53:37;;;;;;;23.10;15.73;;;10.40;99.90;;;;;;4856326;29;20052;-82
2023/10/26 09:56:04;;;;;;;22.20;14.63;;;10.50;99.90;;;;;;4839581;29;20052;-81
2023/10/26 09:58:40;;;;;;;20.90;14.32;;;10.50;99.90;;;;;;4838891;29;20037;-81
2023/10/26 10:01:38;;;;;;;21.17;14.55;;;10.60;99.90;;;;;;4856698;29;20128;-81
2023/10/26 10:04:05;;;;;;;20.95;14.45;;;10.70;99.90;;;;;;4855334;29;20101;-81
2023/10/26 10:06:58;;;;;;;20.35;13.32;;;10.80;99.90;;;;;;4849468;29;20761;-82
2023/10/26 10:09:27;;;;;;;20.85;14.10;;;10.80;99.90;;;;;;4866499;29;20045;-81
2023/10/26 10:12:10;;;;;;;19.92;13.65;;;10.80;99.90;;;;;;4870189;29;20532;-81
2023/10/26 10:14:50;;;;;;;19.65;13.68;;;10.90;99.90;;;;;;4855161;29;20048;-81
2023/10/26 10:17:18;;;;;;;19.75;13.50;;;10.90;99.90;;;;;;4854489;29;20124;-80
2023/10/26 10:19:48;;;;;;;20.67;13.88;;;10.90;99.90;;;;;;4870818;29;20090;-81
2023/10/26 10:22:39;;;;;;;20.60;13.52;;;10.90;99.90;;;;;;4863656;29;20041;-81
2023/10/26 10:25:11;;;;;;;18.67;12.30;;;10.90;99.90;;;;;;4855484;29;20073;-81
2023/10/26 10:27:49;;;;;;;18.35;12.45;;;10.90;99.90;;;;;;4838988;29;20049;-81
2023/10/26 10:30:21;;;;;;;18.98;13.65;;;10.90;99.90;;;;;;4837668;29;20044;-81
2023/10/26 10:32:48;;;;;;;18.33;11.88;;;10.90;99.90;;;;;;4850664;29;20511;-82
2023/10/26 10:35:25;;;;;;;19.25;13.15;;;10.90;99.90;;;;;;4856796;29;20100;-82
2023/10/26 10:38:13;;;;;;;18.83;12.63;;;10.90;99.90;;;;;;4840010;29;20141;-81
2023/10/26 10:40:54;;;;;;;18.77;12.88;;;10.90;99.90;;;;;;4838505;29;20048;-82
2023/10/26 10:43:46;;;;;;;19.05;13.30;;;10.90;99.90;;;;;;4866043;29;20105;-81
2023/10/26 10:46:29;;;;;;;20.08;13.43;;;10.80;99.90;;;;;;4865885;29;20123;-82
2023/10/26 10:49:06;;;;;;;19.38;13.13;;;10.90;99.90;;;;;;4833880;29;20041;-81
2023/10/26 10:51:39;;;;;;;20.92;14.45;;;10.80;99.90;;;;;;4853287;29;20060;-80
2023/10/26 10:54:13;;;;;;;21.02;14.05;;;10.80;99.90;;;;;;4849269;29;20049;-81
2023/10/26 10:56:41;;;;;;;22.02;14.38;;;10.80;99.90;;;;;;4838325;29;20048;-81
2023/10/26 10:59:30;;;;;;;21.02;14.05;;;10.80;99.90;;;;;;4848922;29;20065;-81
2023/10/26 11:02:13;;;;;;;20.25;14.57;;;10.80;99.90;;;;;;4852781;29;20053;-81
2023/10/26 11:04:55;;;;;;;;;;;10.80;99.90;;;;;;4853165;29;20072;-81
2023/10/26 11:07:28;;;;;;;20.85;13.68;;;10.70;99.90;;;;;;4861532;29;19980;-81
2023/10/26 11:09:58;;;;;;;20.25;13.38;;;10.70;99.90;;;;;;4837583;29;20113;-81
2023/10/26 11:12:25;;;;;;;20.50;13.75;;;10.70;99.90;;;;;;4858035;29;20249;-81
2023/10/26 11:14:52;;;;;;;20.73;14.10;;;10.70;99.90;;;;;;4841989;29;20056;-81
2023/10/26 11:17:23;;;;;;;20.85;13.55;;;10.70;99.90;;;;;;4858248;29;20080;-81
2023/10/26 11:19:50;;;;;;;21.50;14.52;;;10.70;99.90;;;;;;4856574;29;20049;-81
2023/10/26 11:22:17;;;;;;;20.08;13.52;;;10.70;99.90;;;;;;4825781;29;20033;-81
2023/10/26 11:24:44;;;;;;;20.50;13.48;;;10.70;99.90;;;;;;4857307;29;20041;-81
2023/10/26 11:27:14;;;;;;;22.17;14.35;;;10.70;99.90;;;;;;4855840;29;20044;-81
2023/10/26 11:29:41;;;;;;;19.90;13.80;;;10.70;99.90;;;;;;4855118;29;20045;-81
2023/10/26 11:32:20;;;;;;;20.42;13.85;;;10.70;99.90;;;;;;4860445;29;20088;-81
2023/10/26 11:35:05;;;;;;;21.23;12.98;;;10.70;99.90;;;;;;4845924;29;20452;-81
2023/10/26 11:37:33;;;;;;;21.08;13.75;;;10.70;99.90;;;;;;4877033;29;20548;-81
2023/10/26 11:39:59;;;;;;;22.55;13.98;;;10.80;99.90;;;;;;4860496;29;20063;-81
2023/10/26 11:42:44;;;;;;;20.75;12.75;;;10.80;99.90;;;;;;4888146;29;20483;-81
2023/10/26 11:45:11;;;;;;;19.50;12.80;;;10.70;99.90;;;;;;4891063;29;20104;-81
2023/10/26 11:48:06;;;;;;;18.83;12.82;;;10.80;99.90;;;;;;4890595;29;20525;-81
2023/10/26 11:50:36;;;;;;;19.40;12.98;;;10.80;99.90;;;;;;4863113;29;20076;-81
2023/10/26 11:53:04;;;;;;;21.58;13.73;;;10.80;99.90;;;;;;4874933;29;20403;-81
2023/10/26 11:55:34;;;;;;;19.83;13.50;;;10.80;99.90;;;;;;4859853;29;20063;-81
2023/10/26 11:58:01;;;;;;;18.83;12.95;;;10.80;99.90;;;;;;4856580;29;20036;-81
2023/10/26 12:00:28;;;;;;;20.63;13.93;;;10.80;99.90;;;;;;4858792;29;20040;-81
2023/10/26 12:02:58;;;;;;;20.50;13.80;;;10.80;99.90;;;;;;4874577;29;20029;-81
2023/10/26 12:05:26;;;;;;;20.25;13.48;;;11.60;99.90;;;;;;4852178;29;20498;-81
2023/10/26 12:07:52;;;;;;;19.48;13.13;;;10.80;99.90;;;;;;4859228;29;20036;-81
2023/10/26 12:10:20;;;;;;;20.30;14.02;;;10.80;99.90;;;;;;4875988;29;20037;-81
2023/10/26 12:12:46;;;;;;;20.38;14.27;;;10.80;99.90;;;;;;4859362;29;20052;-81
2023/10/26 12:15:12;;;;;;;20.73;14.05;;;10.80;99.90;;;;;;4841353;29;20052;-81
2023/10/26 12:17:38;;;;;;;20.77;13.30;;;11.00;99.90;;;;;;4862346;29;20491;-81
2023/10/26 12:20:05;;;;;;;20.33;14.00;;;11.10;99.90;;;;;;4865074;29;20056;-81
2023/10/26 12:22:31;;;;;;;21.48;14.32;;;11.20;99.90;;;;;;4861617;29;20048;-81
2023/10/26 12:24:56;;;;;;;21.42;14.93;;;11.20;99.90;;;;;;4875899;29;20067;-81
2023/10/26 12:27:22;;;;;;;22.48;13.65;;;11.30;99.90;;;;;;4860575;29;20526;-81
2023/10/26 12:29:48;;;;;;;21.55;14.15;;;11.50;99.90;;;;;;4861279;29;20487;-81
2023/10/26 12:32:15;;;;;;;19.60;13.38;;;11.60;99.90;;;;;;4876340;29;20088;-81
2023/10/26 12:34:40;;;;;;;19.35;12.68;;;11.70;99.90;;;;;;4864269;29;20128;-81
2023/10/26 12:37:06;;;;;;;22.52;13.98;;;11.70;99.90;;;;;;4865933;29;20143;-81